4°C Temp
2°C Dewpoint
87% Humidity
Temperature
2 KM/H
1 MPH
1 KTS
Calm
Due North

Wind Speed
Clear
Conditions
Pressure 1033.92 (hPa) - 30.53 (in)
Visibility 6.2 (mi) - 10.0 (km)

Current Conditions
LSZA
Location Lugano 50 (km)
Metar :LSZA 250750Z VRB01KT CAVOK 04/02 Q1034 NOSIG
Thu 25th February 08:50 am

Airport
  Metar Aviation API Data Provided by https://www.checkwx.com/ PHP scripts by weather34.com ©2021